createdAt,value
2023-06-04T00:00:05.282Z,1002.52
2023-06-04T00:01:05.569Z,1002.47
2023-06-04T00:02:06.316Z,1002.47
2023-06-04T00:03:05.294Z,1002.47
2023-06-04T00:04:05.287Z,1002.47
2023-06-04T00:05:05.245Z,1002.51
2023-06-04T00:06:05.196Z,1002.51
2023-06-04T00:07:05.181Z,1002.47
2023-06-04T00:08:05.186Z,1002.49
2023-06-04T00:09:05.178Z,1002.42
2023-06-04T00:10:05.133Z,1002.43
2023-06-04T00:11:05.319Z,1002.47
2023-06-04T00:12:05.124Z,1002.41
2023-06-04T00:13:05.103Z,1002.42
2023-06-04T00:14:05.111Z,1002.37
2023-06-04T00:15:05.068Z,1002.36
2023-06-04T00:16:05.118Z,1002.39
2023-06-04T00:17:05.075Z,1002.35
2023-06-04T00:18:05.053Z,1002.36
2023-06-04T00:19:05.195Z,1002.36
2023-06-04T00:20:05.051Z,1002.32
2023-06-04T00:21:05.325Z,1002.34
2023-06-04T00:22:05.010Z,1002.34
2023-06-04T00:23:04.995Z,1002.32
2023-06-04T00:24:05.141Z,1002.36
2023-06-04T00:25:04.985Z,1002.35
2023-06-04T00:26:04.957Z,1002.34
2023-06-04T00:27:04.987Z,1002.36
2023-06-04T00:28:04.954Z,1002.36
2023-06-04T00:29:04.913Z,1002.35
2023-06-04T00:30:04.933Z,1002.28
2023-06-04T00:31:05.279Z,1002.33
2023-06-04T00:32:05.017Z,1002.30
2023-06-04T00:33:04.953Z,1002.30
2023-06-04T00:34:04.850Z,1002.36
2023-06-04T00:35:04.898Z,1002.36
2023-06-04T00:36:04.854Z,1002.42
2023-06-04T00:37:04.821Z,1002.38
2023-06-04T00:38:04.858Z,1002.41
2023-06-04T00:39:04.823Z,1002.40
2023-06-04T00:40:04.818Z,1002.43
2023-06-04T00:41:05.124Z,1002.41
2023-06-04T00:42:04.783Z,1002.40
2023-06-04T00:43:04.776Z,1002.44
2023-06-04T00:44:04.740Z,1002.43
2023-06-04T00:45:04.784Z,1002.41
2023-06-04T00:46:04.795Z,1002.40
2023-06-04T00:47:04.726Z,1002.40
2023-06-04T00:48:04.769Z,1002.39
2023-06-04T00:49:04.704Z,1002.42
2023-06-04T00:50:04.675Z,1002.40
2023-06-04T00:51:04.802Z,1002.39
2023-06-04T00:52:04.685Z,1002.38
2023-06-04T00:53:04.672Z,1002.37
2023-06-04T00:54:04.632Z,1002.36
2023-06-04T00:55:04.640Z,1002.36
2023-06-04T00:56:04.642Z,1002.33
2023-06-04T00:57:04.626Z,1002.36
2023-06-04T00:58:04.619Z,1002.34
2023-06-04T00:59:04.585Z,1002.33
2023-06-04T01:00:04.554Z,1002.35
2023-06-04T01:01:04.737Z,1002.41
2023-06-04T01:02:04.559Z,1002.35
2023-06-04T01:03:04.621Z,1002.37
2023-06-04T01:04:04.630Z,1002.35
2023-06-04T01:05:04.525Z,1002.39
2023-06-04T01:06:04.499Z,1002.39
2023-06-04T01:07:04.504Z,1002.39
2023-06-04T01:08:04.533Z,1002.39
2023-06-04T01:09:04.456Z,1002.39
2023-06-04T01:10:04.477Z,1002.45
2023-06-04T01:11:04.631Z,1002.44
2023-06-04T01:12:04.443Z,1002.46
2023-06-04T01:13:04.461Z,1002.46
2023-06-04T01:14:04.427Z,1002.49
2023-06-04T01:15:04.407Z,1002.47
2023-06-04T01:16:04.412Z,1002.46
2023-06-04T01:17:04.951Z,1002.46
2023-06-04T01:18:04.629Z,1002.52
2023-06-04T01:19:04.420Z,1002.53
2023-06-04T01:20:04.346Z,1002.51
2023-06-04T01:21:04.503Z,1002.53
2023-06-04T01:22:04.320Z,1002.53
2023-06-04T01:23:04.342Z,1002.51
2023-06-04T01:24:04.380Z,1002.48
2023-06-04T01:25:04.315Z,1002.47
2023-06-04T01:26:04.261Z,1002.47
2023-06-04T01:27:04.268Z,1002.53
2023-06-04T01:28:04.377Z,1002.48
2023-06-04T01:29:04.252Z,1002.50
2023-06-04T01:30:04.226Z,1002.53
2023-06-04T01:31:04.389Z,1002.48
2023-06-04T01:32:04.216Z,1002.51
2023-06-04T01:33:04.309Z,1002.49
2023-06-04T01:34:04.226Z,1002.46
2023-06-04T01:35:04.198Z,1002.47
2023-06-04T01:36:04.184Z,1002.46
2023-06-04T01:37:04.172Z,1002.42
2023-06-04T01:38:04.132Z,1002.44
2023-06-04T01:39:04.148Z,1002.44
2023-06-04T01:40:04.148Z,1002.46
2023-06-04T01:41:04.212Z,1002.49
2023-06-04T01:42:04.090Z,1002.45
2023-06-04T01:43:04.081Z,1002.45
2023-06-04T01:44:04.110Z,1002.51
2023-06-04T01:45:04.050Z,1002.48
2023-06-04T01:46:04.135Z,1002.48
2023-06-04T01:47:04.065Z,1002.45
2023-06-04T01:48:04.085Z,1002.47
2023-06-04T01:49:04.033Z,1002.51
2023-06-04T01:50:04.022Z,1002.43
2023-06-04T01:51:04.051Z,1002.46
2023-06-04T01:52:04.018Z,1002.48
2023-06-04T01:53:03.988Z,1002.51
2023-06-04T01:54:03.989Z,1002.45
2023-06-04T01:55:03.961Z,1002.52
2023-06-04T01:56:03.935Z,1002.52
2023-06-04T01:57:03.917Z,1002.55
2023-06-04T01:58:03.968Z,1002.53
2023-06-04T01:59:03.921Z,1002.57
2023-06-04T02:00:03.894Z,1002.58
2023-06-04T02:01:04.078Z,1002.51
2023-06-04T02:02:03.917Z,1002.55
2023-06-04T02:03:04.039Z,1002.52
2023-06-04T02:04:04.025Z,1002.57
2023-06-04T02:05:03.833Z,1002.55
2023-06-04T02:06:03.842Z,1002.59
2023-06-04T02:07:03.842Z,1002.55
2023-06-04T02:08:03.806Z,1002.55
2023-06-04T02:09:03.862Z,1002.52
2023-06-04T02:10:03.821Z,1002.51
2023-06-04T02:11:03.760Z,1002.51
2023-06-04T02:12:03.744Z,1002.49
2023-06-04T02:13:03.759Z,1002.57
2023-06-04T02:14:03.726Z,1002.55
2023-06-04T02:15:03.801Z,1002.54
2023-06-04T02:16:03.724Z,1002.56
2023-06-04T02:17:03.694Z,1002.52
2023-06-04T02:18:03.705Z,1002.53
2023-06-04T02:19:03.698Z,1002.52
2023-06-04T02:20:03.699Z,1002.54
2023-06-04T02:21:03.687Z,1002.56
2023-06-04T02:22:03.632Z,1002.55
2023-06-04T02:23:03.691Z,1002.54
2023-06-04T02:24:03.809Z,1002.54
2023-06-04T02:25:03.635Z,1002.56
2023-06-04T02:26:03.608Z,1002.55
2023-06-04T02:27:03.593Z,1002.60
2023-06-04T02:28:03.588Z,1002.60
2023-06-04T02:29:03.587Z,1002.59
2023-06-04T02:30:03.565Z,1002.60
2023-06-04T02:31:03.546Z,1002.59
2023-06-04T02:32:03.636Z,1002.59
2023-06-04T02:33:03.579Z,1002.59
2023-06-04T02:34:03.533Z,1002.59
2023-06-04T02:35:03.551Z,1002.65
2023-06-04T02:36:03.506Z,1002.63
2023-06-04T02:37:03.481Z,1002.65
2023-06-04T02:38:03.462Z,1002.68
2023-06-04T02:39:03.480Z,1002.65
2023-06-04T02:40:03.469Z,1002.65
2023-06-04T02:41:03.419Z,1002.69
2023-06-04T02:42:03.420Z,1002.65
2023-06-04T02:43:03.424Z,1002.68
2023-06-04T02:44:03.442Z,1002.71
2023-06-04T02:45:03.395Z,1002.69
2023-06-04T02:46:03.408Z,1002.74
2023-06-04T02:47:03.367Z,1002.70
2023-06-04T02:48:03.478Z,1002.67
2023-06-04T02:49:03.372Z,1002.72
2023-06-04T02:50:03.349Z,1002.70
2023-06-04T02:51:03.313Z,1002.69
2023-06-04T02:52:03.301Z,1002.73
2023-06-04T02:53:03.299Z,1002.73
2023-06-04T02:54:03.311Z,1002.74
2023-06-04T02:55:03.292Z,1002.71
2023-06-04T02:56:03.268Z,1002.69
2023-06-04T02:57:03.239Z,1002.70
2023-06-04T02:58:03.245Z,1002.67
2023-06-04T02:59:03.287Z,1002.72
2023-06-04T03:00:03.214Z,1002.71
2023-06-04T03:01:03.211Z,1002.73
2023-06-04T03:02:03.212Z,1002.72
2023-06-04T03:03:03.499Z,1002.69
2023-06-04T03:04:03.346Z,1002.75
2023-06-04T03:05:03.157Z,1002.79
2023-06-04T03:06:03.151Z,1002.76
2023-06-04T03:07:03.121Z,1002.77
2023-06-04T03:08:03.130Z,1002.78
2023-06-04T03:09:03.112Z,1002.79
2023-06-04T03:10:03.126Z,1002.82
2023-06-04T03:11:03.118Z,1002.77
2023-06-04T03:12:03.069Z,1002.79
2023-06-04T03:13:03.084Z,1002.81
2023-06-04T03:14:03.070Z,1002.79
2023-06-04T03:15:03.026Z,1002.81
2023-06-04T03:16:03.087Z,1002.84
2023-06-04T03:17:03.055Z,1002.81
2023-06-04T03:18:03.129Z,1002.80
2023-06-04T03:19:02.983Z,1002.86
2023-06-04T03:20:02.998Z,1002.89
2023-06-04T03:21:02.991Z,1002.87
2023-06-04T03:22:02.953Z,1002.86
2023-06-04T03:23:02.977Z,1002.77
2023-06-04T03:24:03.073Z,1002.87
2023-06-04T03:25:02.922Z,1002.83
2023-06-04T03:26:02.912Z,1002.87
2023-06-04T03:27:02.913Z,1002.86
2023-06-04T03:28:02.949Z,1002.83
2023-06-04T03:29:02.895Z,1002.88
2023-06-04T03:30:02.917Z,1002.88
2023-06-04T03:31:02.876Z,1002.85
2023-06-04T03:32:02.855Z,1002.87
2023-06-04T03:33:02.950Z,1002.88
2023-06-04T03:34:02.836Z,1002.94
2023-06-04T03:35:02.838Z,1002.91
2023-06-04T03:36:02.838Z,1002.97
2023-06-04T03:37:02.792Z,1002.96
2023-06-04T03:38:02.803Z,1002.96
2023-06-04T03:39:02.779Z,1003.02
2023-06-04T03:40:02.745Z,1003.06
2023-06-04T03:41:02.733Z,1003.04
2023-06-04T03:42:02.757Z,1003.06
2023-06-04T03:43:02.753Z,1003.06
2023-06-04T03:44:02.773Z,1003.03
2023-06-04T03:45:02.700Z,1003.09
2023-06-04T03:46:02.745Z,1003.10
2023-06-04T03:47:02.806Z,1003.07
2023-06-04T03:48:02.727Z,1003.11
2023-06-04T03:49:02.680Z,1003.12
2023-06-04T03:50:02.649Z,1003.09
2023-06-04T03:51:02.654Z,1003.06
2023-06-04T03:52:02.664Z,1003.08
2023-06-04T03:53:02.604Z,1003.10
2023-06-04T03:54:02.624Z,1003.05
2023-06-04T03:55:02.596Z,1003.10
2023-06-04T03:56:02.584Z,1003.05
2023-06-04T03:57:02.568Z,1003.09
2023-06-04T03:58:02.626Z,1003.11
2023-06-04T03:59:02.540Z,1003.09
2023-06-04T04:00:02.532Z,1003.10
2023-06-04T04:01:02.551Z,1003.09
2023-06-04T04:02:02.590Z,1003.10
2023-06-04T04:03:02.606Z,1003.11
2023-06-04T04:04:02.535Z,1003.07
2023-06-04T04:05:02.483Z,1003.10
2023-06-04T04:06:02.474Z,1003.06
2023-06-04T04:07:02.459Z,1003.07
2023-06-04T04:08:02.478Z,1003.11
2023-06-04T04:09:02.416Z,1003.12
2023-06-04T04:10:02.408Z,1003.11
2023-06-04T04:11:02.460Z,1003.12
2023-06-04T04:12:02.452Z,1003.11
2023-06-04T04:13:02.444Z,1003.14
2023-06-04T04:14:02.420Z,1003.12
2023-06-04T04:15:02.376Z,1003.14
2023-06-04T04:16:02.375Z,1003.13
2023-06-04T04:17:02.409Z,1003.13
2023-06-04T04:18:02.361Z,1003.11
2023-06-04T04:19:02.354Z,1003.12
2023-06-04T04:20:02.306Z,1003.17
2023-06-04T04:21:02.286Z,1003.14
2023-06-04T04:22:02.312Z,1003.17
2023-06-04T04:23:02.268Z,1003.20
2023-06-04T04:24:02.350Z,1003.17
2023-06-04T04:25:02.278Z,1003.12
2023-06-04T04:26:02.270Z,1003.19
2023-06-04T04:27:02.270Z,1003.19
2023-06-04T04:28:02.211Z,1003.17
2023-06-04T04:29:02.205Z,1003.17
2023-06-04T04:30:02.216Z,1003.16
2023-06-04T04:31:02.262Z,1003.18
2023-06-04T04:32:02.201Z,1003.21
2023-06-04T04:33:02.192Z,1003.21
2023-06-04T04:34:02.148Z,1003.20
2023-06-04T04:35:02.117Z,1003.16
2023-06-04T04:36:02.116Z,1003.14
2023-06-04T04:37:02.190Z,1003.15
2023-06-04T04:38:02.132Z,1003.17
2023-06-04T04:39:02.112Z,1003.19
2023-06-04T04:40:02.080Z,1003.13
2023-06-04T04:41:02.074Z,1003.15
2023-06-04T04:42:02.064Z,1003.15
2023-06-04T04:43:02.082Z,1003.11
2023-06-04T04:44:02.037Z,1003.14
2023-06-04T04:45:02.028Z,1003.16
2023-06-04T04:46:02.034Z,1003.16
2023-06-04T04:47:02.003Z,1003.16
2023-06-04T04:48:02.037Z,1003.16
2023-06-04T04:49:01.994Z,1003.19
2023-06-04T04:50:01.968Z,1003.16
2023-06-04T04:51:01.981Z,1003.19
2023-06-04T04:52:01.950Z,1003.10
2023-06-04T04:53:01.952Z,1003.09
2023-06-04T04:54:01.934Z,1003.12
2023-06-04T04:55:01.886Z,1003.16
2023-06-04T04:56:01.901Z,1003.11
2023-06-04T04:57:13.373Z,1003.13
2023-06-04T04:58:02.872Z,1003.15
2023-06-04T04:59:01.888Z,1003.14
2023-06-04T05:00:01.873Z,1003.14
2023-06-04T05:01:01.838Z,1003.14
2023-06-04T05:02:01.888Z,1003.13
2023-06-04T05:03:01.831Z,1003.10
2023-06-04T05:04:03.378Z,1003.18
2023-06-04T05:05:01.819Z,1003.17
2023-06-04T05:06:01.789Z,1003.21
2023-06-04T05:07:01.790Z,1003.18
2023-06-04T05:08:01.761Z,1003.22
2023-06-04T05:09:01.770Z,1003.21
2023-06-04T05:10:01.782Z,1003.26
2023-06-04T05:11:01.778Z,1003.22
2023-06-04T05:12:01.717Z,1003.25
2023-06-04T05:13:01.750Z,1003.24
2023-06-04T05:14:01.678Z,1003.24
2023-06-04T05:15:01.718Z,1003.24
2023-06-04T05:16:01.701Z,1003.30
2023-06-04T05:17:01.660Z,1003.30
2023-06-04T05:18:01.772Z,1003.27
2023-06-04T05:19:01.659Z,1003.29
2023-06-04T05:20:01.658Z,1003.28
2023-06-04T05:21:01.688Z,1003.28
2023-06-04T05:22:01.599Z,1003.32
2023-06-04T05:23:01.579Z,1003.29
2023-06-04T05:24:01.778Z,1003.25
2023-06-04T05:25:01.565Z,1003.26
2023-06-04T05:26:01.624Z,1003.24
2023-06-04T05:27:01.531Z,1003.24
2023-06-04T05:28:01.550Z,1003.28
2023-06-04T05:29:01.534Z,1003.34
2023-06-04T05:30:01.497Z,1003.33
2023-06-04T05:31:01.500Z,1003.27
2023-06-04T05:32:01.588Z,1003.25
2023-06-04T05:33:01.496Z,1003.26
2023-06-04T05:34:01.489Z,1003.29
2023-06-04T05:35:01.459Z,1003.26
2023-06-04T05:36:01.456Z,1003.31
2023-06-04T05:37:01.425Z,1003.29
2023-06-04T05:38:01.404Z,1003.31
2023-06-04T05:39:01.461Z,1003.32
2023-06-04T05:40:01.401Z,1003.27
2023-06-04T05:41:01.376Z,1003.23
2023-06-04T05:42:01.381Z,1003.26
2023-06-04T05:43:01.384Z,1003.27
2023-06-04T05:44:01.356Z,1003.31
2023-06-04T05:45:01.367Z,1003.29
2023-06-04T05:46:01.342Z,1003.31
2023-06-04T05:47:01.311Z,1003.32
2023-06-04T05:48:02.936Z,1003.37
2023-06-04T05:49:01.290Z,1003.34
2023-06-04T05:50:01.287Z,1003.38
2023-06-04T05:51:01.275Z,1003.35
2023-06-04T05:52:01.270Z,1003.37
2023-06-04T05:53:01.245Z,1003.40
2023-06-04T05:54:01.287Z,1003.35
2023-06-04T05:55:01.234Z,1003.39
2023-06-04T05:56:01.238Z,1003.36
2023-06-04T05:57:01.202Z,1003.37
2023-06-04T05:58:01.367Z,1003.33
2023-06-04T05:59:01.206Z,1003.30
2023-06-04T06:00:01.187Z,1003.33
2023-06-04T06:01:01.209Z,1003.36
2023-06-04T06:02:01.217Z,1003.34
2023-06-04T06:03:01.189Z,1003.36
2023-06-04T06:04:01.149Z,1003.32
2023-06-04T06:05:01.114Z,1003.34
2023-06-04T06:06:01.100Z,1003.34
2023-06-04T06:07:01.149Z,1003.30
2023-06-04T06:08:01.076Z,1003.32
2023-06-04T06:09:01.097Z,1003.34
2023-06-04T06:10:01.062Z,1003.31
2023-06-04T06:11:01.064Z,1003.32
2023-06-04T06:12:01.079Z,1003.32
2023-06-04T06:13:01.046Z,1003.34
2023-06-04T06:14:01.011Z,1003.37
2023-06-04T06:15:01.001Z,1003.39
2023-06-04T06:16:01.037Z,1003.38
2023-06-04T06:17:00.986Z,1003.37
2023-06-04T06:18:01.119Z,1003.39
2023-06-04T06:19:00.975Z,1003.38
2023-06-04T06:20:00.978Z,1003.39
2023-06-04T06:21:00.962Z,1003.38
2023-06-04T06:22:00.919Z,1003.39
2023-06-04T06:23:00.922Z,1003.42
2023-06-04T06:24:00.950Z,1003.37
2023-06-04T06:25:00.934Z,1003.35
2023-06-04T06:26:00.913Z,1003.34
2023-06-04T06:27:00.875Z,1003.36
2023-06-04T06:28:00.857Z,1003.38
2023-06-04T06:29:00.873Z,1003.38
2023-06-04T06:30:00.827Z,1003.38
2023-06-04T06:31:00.871Z,1003.39
2023-06-04T06:32:00.812Z,1003.37
2023-06-04T06:33:00.842Z,1003.43
2023-06-04T06:34:00.778Z,1003.42
2023-06-04T06:35:00.773Z,1003.43
2023-06-04T06:36:00.795Z,1003.42
2023-06-04T06:37:00.793Z,1003.43
2023-06-04T06:38:00.750Z,1003.43
2023-06-04T06:39:00.755Z,1003.45
2023-06-04T06:40:00.791Z,1003.47
2023-06-04T06:41:00.730Z,1003.38
2023-06-04T06:42:00.711Z,1003.43
2023-06-04T06:43:00.702Z,1003.44
2023-06-04T06:44:00.705Z,1003.42
2023-06-04T06:45:00.685Z,1003.43
2023-06-04T06:46:00.699Z,1003.44
2023-06-04T06:47:00.774Z,1003.43
2023-06-04T06:48:00.724Z,1003.43
2023-06-04T06:49:00.657Z,1003.44
2023-06-04T06:50:00.646Z,1003.48
2023-06-04T06:51:00.640Z,1003.47
2023-06-04T06:52:00.609Z,1003.44
2023-06-04T06:53:00.609Z,1003.48
2023-06-04T06:54:00.597Z,1003.49
2023-06-04T06:55:00.598Z,1003.52
2023-06-04T06:56:00.570Z,1003.48
2023-06-04T06:57:00.603Z,1003.50
2023-06-04T06:58:00.537Z,1003.47
2023-06-04T06:59:00.536Z,1003.45
2023-06-04T07:00:00.529Z,1003.41
2023-06-04T07:01:00.522Z,1003.45
2023-06-04T07:02:00.540Z,1003.42
2023-06-04T07:03:00.683Z,1003.41
2023-06-04T07:04:00.479Z,1003.37
2023-06-04T07:05:00.485Z,1003.40
2023-06-04T07:06:00.486Z,1003.39
2023-06-04T07:07:00.456Z,1003.39
2023-06-04T07:08:00.444Z,1003.40
2023-06-04T07:09:00.411Z,1003.40
2023-06-04T07:10:00.435Z,1003.41
2023-06-04T07:11:00.398Z,1003.43
2023-06-04T07:12:00.389Z,1003.40
2023-06-04T07:13:00.409Z,1003.41
2023-06-04T07:14:00.369Z,1003.39
2023-06-04T07:15:00.397Z,1003.43
2023-06-04T07:16:00.367Z,1003.46
2023-06-04T07:17:00.450Z,1003.39
2023-06-04T07:18:00.366Z,1003.40
2023-06-04T07:19:00.312Z,1003.38
2023-06-04T07:20:00.292Z,1003.36
2023-06-04T07:21:00.334Z,1003.40
2023-06-04T07:22:00.306Z,1003.39
2023-06-04T07:23:00.277Z,1003.40
2023-06-04T07:24:00.368Z,1003.39
2023-06-04T07:25:00.305Z,1003.38
2023-06-04T07:26:00.255Z,1003.36
2023-06-04T07:27:00.237Z,1003.39
2023-06-04T07:28:00.270Z,1003.37
2023-06-04T07:29:00.233Z,1003.36
2023-06-04T07:30:00.285Z,1003.34
2023-06-04T07:31:00.221Z,1003.33
2023-06-04T07:32:00.249Z,1003.33
2023-06-04T07:33:00.255Z,1003.32
2023-06-04T07:34:00.201Z,1003.32
2023-06-04T07:35:00.161Z,1003.31
2023-06-04T07:36:00.171Z,1003.25
2023-06-04T07:37:00.153Z,1003.28
2023-06-04T07:38:00.151Z,1003.29
2023-06-04T07:39:00.136Z,1003.30
2023-06-04T07:40:00.176Z,1003.28
2023-06-04T07:41:00.132Z,1003.28
2023-06-04T07:42:00.070Z,1003.28
2023-06-04T07:43:00.110Z,1003.26
2023-06-04T07:44:00.140Z,1003.29
2023-06-04T07:45:00.079Z,1003.23
2023-06-04T07:46:00.046Z,1003.21
2023-06-04T07:47:00.108Z,1003.25
2023-06-04T07:48:00.061Z,1003.24
2023-06-04T07:49:00.012Z,1003.21
2023-06-04T07:50:03.025Z,1003.18
2023-06-04T07:50:59.990Z,1003.19
2023-06-04T07:52:00.011Z,1003.19
2023-06-04T07:52:59.964Z,1003.18
2023-06-04T07:54:00.000Z,1003.14
2023-06-04T07:54:59.947Z,1003.17
2023-06-04T07:55:59.950Z,1003.13
2023-06-04T07:56:59.957Z,1003.13
2023-06-04T07:57:59.906Z,1003.10
2023-06-04T07:58:59.916Z,1003.06
2023-06-04T07:59:59.934Z,1003.03
2023-06-04T08:00:59.896Z,1003.05
2023-06-04T08:01:59.904Z,1003.01
2023-06-04T08:02:59.935Z,1003.01
2023-06-04T08:04:00.158Z,1002.96
2023-06-04T08:04:59.973Z,1002.95
2023-06-04T08:06:01.096Z,1002.94
2023-06-04T08:06:59.851Z,1002.93
2023-06-04T08:07:59.820Z,1002.93
2023-06-04T08:08:59.809Z,1002.92
2023-06-04T08:09:59.791Z,1002.91
2023-06-04T08:10:59.909Z,1002.92
2023-06-04T08:11:59.774Z,1002.85
2023-06-04T08:12:59.791Z,1002.81
2023-06-04T08:13:59.761Z,1002.88
2023-06-04T08:14:59.751Z,1002.85
2023-06-04T08:15:59.776Z,1002.83
2023-06-04T08:16:59.786Z,1002.84
2023-06-04T08:17:59.787Z,1002.82
2023-06-04T08:18:59.724Z,1002.80
2023-06-04T08:19:59.712Z,1002.78
2023-06-04T08:20:59.692Z,1002.78
2023-06-04T08:21:59.733Z,1002.79
2023-06-04T08:22:59.713Z,1002.78
2023-06-04T08:23:59.689Z,1002.83
2023-06-04T08:24:59.660Z,1002.77
2023-06-04T08:25:59.654Z,1002.81
2023-06-04T08:26:59.640Z,1002.81
2023-06-04T08:27:59.648Z,1002.76
2023-06-04T08:28:59.629Z,1002.80
2023-06-04T08:29:59.620Z,1002.77
2023-06-04T08:30:59.600Z,1002.76
2023-06-04T08:31:59.612Z,1002.79
2023-06-04T08:32:59.633Z,1002.70
2023-06-04T08:33:59.616Z,1002.67
2023-06-04T08:34:59.563Z,1002.75
2023-06-04T08:35:59.561Z,1002.78
2023-06-04T08:36:59.550Z,1002.80
2023-06-04T08:37:59.540Z,1002.78
2023-06-04T08:38:59.579Z,1002.70
2023-06-04T08:39:59.522Z,1002.79
2023-06-04T08:40:59.510Z,1002.84
2023-06-04T08:41:59.504Z,1002.77
2023-06-04T08:42:59.483Z,1002.80
2023-06-04T08:44:01.294Z,1002.81
2023-06-04T08:44:59.500Z,1002.77
2023-06-04T08:45:59.544Z,1002.77
2023-06-04T08:46:59.448Z,1002.76
2023-06-04T08:47:59.506Z,1002.77
2023-06-04T08:49:00.940Z,1002.82
2023-06-04T08:49:59.493Z,1002.81
2023-06-04T08:50:59.415Z,1002.66
2023-06-04T08:51:59.440Z,1002.79
2023-06-04T08:52:59.428Z,1002.78
2023-06-04T08:53:59.388Z,1002.76
2023-06-04T08:54:59.426Z,1002.84
2023-06-04T08:55:59.356Z,1002.82
2023-06-04T08:56:59.344Z,1002.78
2023-06-04T08:57:59.331Z,1002.79
2023-06-04T08:58:59.336Z,1002.78
2023-06-04T08:59:59.332Z,1002.77
2023-06-04T09:00:59.389Z,1002.73
2023-06-04T09:01:59.293Z,1002.77
2023-06-04T09:02:59.411Z,1002.71
2023-06-04T09:03:59.330Z,1002.77
2023-06-04T09:04:59.292Z,1002.70
2023-06-04T09:05:59.313Z,1002.69
2023-06-04T09:06:59.269Z,1002.65
2023-06-04T09:07:59.271Z,1002.65
2023-06-04T09:08:59.233Z,1002.61
2023-06-04T09:10:12.137Z,1002.61
2023-06-04T09:11:00.346Z,1002.63
2023-06-04T09:11:59.234Z,1002.57
2023-06-04T09:12:59.243Z,1002.51
2023-06-04T09:13:59.209Z,1002.56
2023-06-04T09:14:59.221Z,1002.61
2023-06-04T09:15:59.213Z,1002.55
2023-06-04T09:16:59.213Z,1002.53
2023-06-04T09:17:59.208Z,1002.57
2023-06-04T09:18:59.136Z,1002.51
2023-06-04T09:19:59.133Z,1002.64
2023-06-04T09:20:59.163Z,1002.55
2023-06-04T09:21:59.139Z,1002.58
2023-06-04T09:22:59.105Z,1002.57
2023-06-04T09:23:59.273Z,1002.59
2023-06-04T09:24:59.117Z,1002.62
2023-06-04T09:25:59.116Z,1002.57
2023-06-04T09:26:59.121Z,1002.60
2023-06-04T09:27:59.096Z,1002.60
2023-06-04T09:28:59.096Z,1002.58
2023-06-04T09:29:59.073Z,1002.58
2023-06-04T09:30:59.071Z,1002.59
2023-06-04T09:31:59.041Z,1002.60
2023-06-04T09:32:59.234Z,1002.59
2023-06-04T09:33:59.028Z,1002.59
2023-06-04T09:34:59.016Z,1002.56
2023-06-04T09:35:59.018Z,1002.59
2023-06-04T09:36:59.013Z,1002.54
2023-06-04T09:37:59.021Z,1002.53
2023-06-04T09:38:58.986Z,1002.49
2023-06-04T09:39:59.000Z,1002.51
2023-06-04T09:40:58.989Z,1002.47
2023-06-04T09:41:58.951Z,1002.41
2023-06-04T09:42:58.990Z,1002.42
2023-06-04T09:43:58.944Z,1002.42
2023-06-04T09:44:58.930Z,1002.28
2023-06-04T09:45:58.927Z,1002.31
2023-06-04T09:46:59.207Z,1002.33
2023-06-04T09:47:59.004Z,1002.29
2023-06-04T09:48:58.905Z,1002.25
2023-06-04T09:49:58.864Z,1002.20
2023-06-04T09:50:58.891Z,1002.13
2023-06-04T09:51:58.868Z,1002.14
2023-06-04T09:52:58.858Z,1002.06
2023-06-04T09:53:58.890Z,1002.18
2023-06-04T09:54:58.817Z,1002.16
2023-06-04T09:55:58.872Z,1002.22
2023-06-04T09:56:58.815Z,1002.27
2023-06-04T09:57:58.809Z,1002.25
2023-06-04T09:58:58.789Z,1002.29
2023-06-04T09:59:58.828Z,1002.26
2023-06-04T10:00:58.796Z,1002.25
2023-06-04T10:01:58.798Z,1002.25
2023-06-04T10:02:58.917Z,1002.24
2023-06-04T10:03:58.801Z,1002.24
2023-06-04T10:04:58.752Z,1002.21
2023-06-04T10:05:58.772Z,1002.18
2023-06-04T10:06:58.717Z,1002.16
2023-06-04T10:07:58.730Z,1002.12
2023-06-04T10:08:58.725Z,1002.17
2023-06-04T10:09:58.684Z,1002.17
2023-06-04T10:10:58.698Z,1002.14
2023-06-04T10:11:58.716Z,1002.12
2023-06-04T10:12:58.713Z,1002.15
2023-06-04T10:13:58.677Z,1002.05
2023-06-04T10:14:58.649Z,1002.05
2023-06-04T10:15:58.669Z,1002.05
2023-06-04T10:16:58.661Z,1002.09
2023-06-04T10:17:58.710Z,1002.01
2023-06-04T10:18:58.631Z,1002.03
2023-06-04T10:19:58.612Z,1001.97
2023-06-04T10:20:58.664Z,1001.95
2023-06-04T10:21:58.580Z,1002.01
2023-06-04T10:22:58.570Z,1001.99
2023-06-04T10:23:58.614Z,1001.95
2023-06-04T10:24:58.569Z,1001.92
2023-06-04T10:25:58.584Z,1001.90
2023-06-04T10:26:58.581Z,1001.89
2023-06-04T10:27:58.564Z,1001.87
2023-06-04T10:28:58.564Z,1001.78
2023-06-04T10:29:58.523Z,1001.93
2023-06-04T10:30:58.547Z,1001.94
2023-06-04T10:31:58.579Z,1001.99
2023-06-04T10:32:58.626Z,1002.04
2023-06-04T10:33:58.500Z,1002.03
2023-06-04T10:34:58.575Z,1002.02
2023-06-04T10:35:58.471Z,1002.04
2023-06-04T10:36:58.480Z,1002.07
2023-06-04T10:37:58.470Z,1002.09
2023-06-04T10:38:58.499Z,1002.03
2023-06-04T10:39:58.433Z,1002.04
2023-06-04T10:40:58.450Z,1002.02
2023-06-04T10:41:58.432Z,1001.99
2023-06-04T10:42:58.417Z,1002.01
2023-06-04T10:43:58.428Z,1002.01
2023-06-04T10:44:58.648Z,1001.98
2023-06-04T10:45:58.427Z,1001.98
2023-06-04T10:46:58.398Z,1002.01
2023-06-04T10:47:58.395Z,1002.02
2023-06-04T10:48:58.424Z,1001.96
2023-06-04T10:49:58.370Z,1002.05
2023-06-04T10:50:58.382Z,1002.07
2023-06-04T10:51:58.350Z,1001.97
2023-06-04T10:52:58.330Z,1001.96
2023-06-04T10:53:58.316Z,1002.01
2023-06-04T10:54:58.307Z,1001.97
2023-06-04T10:55:58.305Z,1001.97
2023-06-04T10:56:58.300Z,1001.96
2023-06-04T10:57:58.285Z,1002.06
2023-06-04T10:58:58.279Z,1001.98
2023-06-04T10:59:58.317Z,1001.95
2023-06-04T11:00:58.246Z,1002.00
2023-06-04T11:01:58.308Z,1001.94
2023-06-04T11:02:58.307Z,1001.96
2023-06-04T11:03:58.296Z,1001.97
2023-06-04T11:04:58.226Z,1001.95
2023-06-04T11:05:58.204Z,1001.96
2023-06-04T11:06:58.192Z,1001.95
2023-06-04T11:07:58.201Z,1001.97
2023-06-04T11:08:58.174Z,1001.97
2023-06-04T11:09:58.152Z,1001.94
2023-06-04T11:10:58.206Z,1001.95
2023-06-04T11:11:58.130Z,1001.92
2023-06-04T11:12:58.144Z,1002.01
2023-06-04T11:13:58.107Z,1001.99
2023-06-04T11:14:58.115Z,1001.97
2023-06-04T11:15:58.163Z,1001.94
2023-06-04T11:16:58.119Z,1001.94
2023-06-04T11:17:58.139Z,1001.86
2023-06-04T11:18:58.111Z,1001.96
2023-06-04T11:19:58.064Z,1001.97
2023-06-04T11:20:58.092Z,1002.00
2023-06-04T11:21:58.029Z,1001.86
2023-06-04T11:22:58.038Z,1001.92
2023-06-04T11:23:58.096Z,1001.95
2023-06-04T11:24:58.010Z,1001.97
2023-06-04T11:25:58.014Z,1001.98
2023-06-04T11:27:09.084Z,1001.96
2023-06-04T11:27:58.976Z,1001.94
2023-06-04T11:28:57.983Z,1001.93
2023-06-04T11:29:57.970Z,1001.91
2023-06-04T11:30:58.002Z,1001.91
2023-06-04T11:31:57.998Z,1001.89
2023-06-04T11:32:57.985Z,1001.90
2023-06-04T11:33:57.936Z,1001.88
2023-06-04T11:34:57.945Z,1001.88
2023-06-04T11:35:57.929Z,1001.82
2023-06-04T11:36:57.912Z,1001.85
2023-06-04T11:37:57.948Z,1001.89
2023-06-04T11:38:57.912Z,1001.90
2023-06-04T11:39:57.861Z,1001.88
2023-06-04T11:40:57.855Z,1001.88
2023-06-04T11:41:57.881Z,1001.85
2023-06-04T11:42:57.871Z,1001.88
2023-06-04T11:43:57.867Z,1001.86
2023-06-04T11:44:57.890Z,1001.85
2023-06-04T11:45:57.817Z,1001.87
2023-06-04T11:46:57.835Z,1001.84
2023-06-04T11:47:57.935Z,1001.82
2023-06-04T11:48:57.822Z,1001.89
2023-06-04T11:49:57.834Z,1002.06
2023-06-04T11:50:57.793Z,1002.29
2023-06-04T11:51:57.747Z,1002.25
2023-06-04T11:52:57.781Z,1002.26
2023-06-04T11:53:57.741Z,1002.33
2023-06-04T11:54:57.743Z,1002.35
2023-06-04T11:55:57.733Z,1002.28
2023-06-04T11:56:57.713Z,1002.25
2023-06-04T11:57:57.708Z,1002.28
2023-06-04T11:58:57.686Z,1002.31
2023-06-04T11:59:57.693Z,1002.36
2023-06-04T12:00:57.718Z,1002.31
2023-06-04T12:01:57.678Z,1002.34
2023-06-04T12:02:57.844Z,1002.40
2023-06-04T12:03:57.652Z,1002.38
2023-06-04T12:04:57.635Z,1002.38